sensor_id;sensor_type;location;lat;lon;timestamp;temperature;humidity
12967;DHT22;6548;49.996;8.238;2024-01-15T00:00:17;-1.70;99.90
12967;DHT22;6548;49.996;8.238;2024-01-15T00:02:42;-1.70;99.90
12967;DHT22;6548;49.996;8.238;2024-01-15T00:05:08;-1.60;99.90
12967;DHT22;6548;49.996;8.238;2024-01-15T00:07:33;-1.60;99.90
12967;DHT22;6548;49.996;8.238;2024-01-15T00:09:59;-1.60;99.90
12967;DHT22;6548;49.996;8.238;2024-01-15T00:12:25;-1.60;99.90
12967;DHT22;6548;49.996;8.238;2024-01-15T00:14:50;-1.60;99.90
12967;DHT22;6548;49.996;8.238;2024-01-15T00:17:16;-1.60;99.90
12967;DHT22;6548;49.996;8.238;2024-01-15T00:19:41;-1.60;99.90
12967;DHT22;6548;49.996;8.238;2024-01-15T00:22:07;-1.50;99.90
12967;DHT22;6548;49.996;8.238;2024-01-15T00:24:32;-1.50;99.90
12967;DHT22;6548;49.996;8.238;2024-01-15T00:26:58;-1.50;99.90
12967;DHT22;6548;49.996;8.238;2024-01-15T00:29:24;-1.50;99.90
12967;DHT22;6548;49.996;8.238;2024-01-15T00:31:49;-1.50;99.90
12967;DHT22;6548;49.996;8.238;2024-01-15T00:34:15;-1.50;99.90
12967;DHT22;6548;49.996;8.238;2024-01-15T00:36:40;-1.50;99.90
12967;DHT22;6548;49.996;8.238;2024-01-15T00:39:06;-1.40;99.90
12967;DHT22;6548;49.996;8.238;2024-01-15T00:41:32;-1.40;99.90
12967;DHT22;6548;49.996;8.238;2024-01-15T00:43:57;-1.40;99.90
12967;DHT22;6548;49.996;8.238;2024-01-15T00:46:23;-1.40;99.90
12967;DHT22;6548;49.996;8.238;2024-01-15T00:48:48;-1.30;99.90
12967;DHT22;6548;49.996;8.238;2024-01-15T00:51:14;-1.30;99.90
12967;DHT22;6548;49.996;8.238;2024-01-15T00:53:40;-1.30;99.90
12967;DHT22;6548;49.996;8.238;2024-01-15T00:56:05;-1.30;99.90
12967;DHT22;6548;49.996;8.238;2024-01-15T00:58:31;-1.30;99.90
12967;DHT22;6548;49.996;8.238;2024-01-15T01:00:57;-1.30;99.90
12967;DHT22;6548;49.996;8.238;2024-01-15T01:03:22;-1.30;99.90
12967;DHT22;6548;49.996;8.238;2024-01-15T01:05:51;-1.20;99.90
12967;DHT22;6548;49.996;8.238;2024-01-15T01:08:16;-1.20;99.90
12967;DHT22;6548;49.996;8.238;2024-01-15T01:10:42;-1.20;99.90
12967;DHT22;6548;49.996;8.238;2024-01-15T01:13:08;-1.20;99.90
12967;DHT22;6548;49.996;8.238;2024-01-15T01:15:34;-1.20;99.90
12967;DHT22;6548;49.996;8.238;2024-01-15T01:17:59;-1.20;99.90
12967;DHT22;6548;49.996;8.238;2024-01-15T01:20:25;-1.20;99.90
12967;DHT22;6548;49.996;8.238;2024-01-15T01:22:51;-1.20;99.90
12967;DHT22;6548;49.996;8.238;2024-01-15T01:25:16;-1.20;99.90
12967;DHT22;6548;49.996;8.238;2024-01-15T01:27:42;-1.20;99.90
12967;DHT22;6548;49.996;8.238;2024-01-15T01:30:08;-1.20;99.90
12967;DHT22;6548;49.996;8.238;2024-01-15T01:32:33;-1.30;99.90
12967;DHT22;6548;49.996;8.238;2024-01-15T01:34:59;-1.30;99.90
12967;DHT22;6548;49.996;8.238;2024-01-15T01:37:25;-1.30;99.90
12967;DHT22;6548;49.996;8.238;2024-01-15T01:39:50;-1.40;99.90
12967;DHT22;6548;49.996;8.238;2024-01-15T01:42:16;-1.40;99.90
12967;DHT22;6548;49.996;8.238;2024-01-15T01:44:41;-1.40;99.90
12967;DHT22;6548;49.996;8.238;2024-01-15T01:47:07;-1.40;99.90
12967;DHT22;6548;49.996;8.238;2024-01-15T01:49:33;-1.40;99.90
12967;DHT22;6548;49.996;8.238;2024-01-15T01:52:01;-1.40;99.90
12967;DHT22;6548;49.996;8.238;2024-01-15T01:54:29;-1.40;99.90
12967;DHT22;6548;49.996;8.238;2024-01-15T01:56:57;-1.30;99.90
12967;DHT22;6548;49.996;8.238;2024-01-15T01:59:25;-1.30;99.90
12967;DHT22;6548;49.996;8.238;2024-01-15T02:01:51;-1.30;99.90
12967;DHT22;6548;49.996;8.238;2024-01-15T02:04:17;-1.30;99.90
12967;DHT22;6548;49.996;8.238;2024-01-15T02:06:43;-1.30;99.90
12967;DHT22;6548;49.996;8.238;2024-01-15T02:09:09;-1.30;99.90
12967;DHT22;6548;49.996;8.238;2024-01-15T02:11:40;-1.30;99.90
12967;DHT22;6548;49.996;8.238;2024-01-15T02:14:06;-1.30;99.90
12967;DHT22;6548;49.996;8.238;2024-01-15T02:16:32;-1.20;99.90
12967;DHT22;6548;49.996;8.238;2024-01-15T02:18:57;-1.20;99.90
12967;DHT22;6548;49.996;8.238;2024-01-15T02:21:23;-1.20;99.90
12967;DHT22;6548;49.996;8.238;2024-01-15T02:23:48;-1.20;99.90
12967;DHT22;6548;49.996;8.238;2024-01-15T02:26:14;-1.10;99.90
12967;DHT22;6548;49.996;8.238;2024-01-15T02:28:40;-1.10;99.90
12967;DHT22;6548;49.996;8.238;2024-01-15T02:31:06;-1.10;99.90
12967;DHT22;6548;49.996;8.238;2024-01-15T02:33:32;-1.10;99.90
12967;DHT22;6548;49.996;8.238;2024-01-15T02:35:58;-1.10;99.90
12967;DHT22;6548;49.996;8.238;2024-01-15T02:38:23;-1.10;99.90
12967;DHT22;6548;49.996;8.238;2024-01-15T02:40:49;-1.10;99.90
12967;DHT22;6548;49.996;8.238;2024-01-15T02:43:15;-1.10;99.90
12967;DHT22;6548;49.996;8.238;2024-01-15T02:45:40;-1.10;99.90
12967;DHT22;6548;49.996;8.238;2024-01-15T02:48:06;-1.10;99.90
12967;DHT22;6548;49.996;8.238;2024-01-15T02:50:31;-1.10;99.90
12967;DHT22;6548;49.996;8.238;2024-01-15T02:52:57;-1.10;99.90
12967;DHT22;6548;49.996;8.238;2024-01-15T02:55:23;-1.10;99.90
12967;DHT22;6548;49.996;8.238;2024-01-15T02:57:48;-1.10;99.90
12967;DHT22;6548;49.996;8.238;2024-01-15T03:00:14;-1.10;99.90
12967;DHT22;6548;49.996;8.238;2024-01-15T03:02:40;-1.10;99.90
12967;DHT22;6548;49.996;8.238;2024-01-15T03:05:07;-1.10;99.90
12967;DHT22;6548;49.996;8.238;2024-01-15T03:07:33;-1.10;99.90
12967;DHT22;6548;49.996;8.238;2024-01-15T03:09:59;-1.10;99.90
12967;DHT22;6548;49.996;8.238;2024-01-15T03:12:24;-1.10;99.90
12967;DHT22;6548;49.996;8.238;2024-01-15T03:14:50;-1.10;99.90
12967;DHT22;6548;49.996;8.238;2024-01-15T03:17:15;-1.10;99.90
12967;DHT22;6548;49.996;8.238;2024-01-15T03:19:41;-1.10;99.90
12967;DHT22;6548;49.996;8.238;2024-01-15T03:22:07;-1.00;99.90
12967;DHT22;6548;49.996;8.238;2024-01-15T03:24:34;-1.10;99.90
12967;DHT22;6548;49.996;8.238;2024-01-15T03:27:00;-1.10;99.90
12967;DHT22;6548;49.996;8.238;2024-01-15T03:29:26;-1.10;99.90
12967;DHT22;6548;49.996;8.238;2024-01-15T03:31:52;-1.10;99.90
12967;DHT22;6548;49.996;8.238;2024-01-15T03:34:17;-1.10;99.90
12967;DHT22;6548;49.996;8.238;2024-01-15T03:36:43;-1.10;99.90
12967;DHT22;6548;49.996;8.238;2024-01-15T03:39:08;-1.10;99.90
12967;DHT22;6548;49.996;8.238;2024-01-15T03:41:34;-1.10;99.90
12967;DHT22;6548;49.996;8.238;2024-01-15T03:43:59;-1.10;99.90
12967;DHT22;6548;49.996;8.238;2024-01-15T03:46:25;-1.00;99.90
12967;DHT22;6548;49.996;8.238;2024-01-15T03:48:51;-1.10;99.90
12967;DHT22;6548;49.996;8.238;2024-01-15T03:51:20;-1.10;99.90
12967;DHT22;6548;49.996;8.238;2024-01-15T03:53:46;-1.10;99.90
12967;DHT22;6548;49.996;8.238;2024-01-15T03:56:11;-1.10;99.90
12967;DHT22;6548;49.996;8.238;2024-01-15T03:58:37;-1.00;99.90
12967;DHT22;6548;49.996;8.238;2024-01-15T04:01:03;-1.10;99.90
12967;DHT22;6548;49.996;8.238;2024-01-15T04:03:28;-1.00;99.90
12967;DHT22;6548;49.996;8.238;2024-01-15T04:05:54;-1.00;99.90
12967;DHT22;6548;49.996;8.238;2024-01-15T04:08:19;-1.00;99.90
12967;DHT22;6548;49.996;8.238;2024-01-15T04:10:45;-1.10;99.90
12967;DHT22;6548;49.996;8.238;2024-01-15T04:13:10;-1.10;99.90
12967;DHT22;6548;49.996;8.238;2024-01-15T04:15:36;-1.10;99.90
12967;DHT22;6548;49.996;8.238;2024-01-15T04:18:03;-1.10;99.90
12967;DHT22;6548;49.996;8.238;2024-01-15T04:20:28;-1.10;99.90
12967;DHT22;6548;49.996;8.238;2024-01-15T04:22:54;-1.10;99.90
12967;DHT22;6548;49.996;8.238;2024-01-15T04:25:20;-1.10;99.90
12967;DHT22;6548;49.996;8.238;2024-01-15T04:27:45;-1.00;99.90
12967;DHT22;6548;49.996;8.238;2024-01-15T04:30:11;-1.00;99.90
12967;DHT22;6548;49.996;8.238;2024-01-15T04:32:37;-1.00;99.90
12967;DHT22;6548;49.996;8.238;2024-01-15T04:35:02;-1.00;99.90
12967;DHT22;6548;49.996;8.238;2024-01-15T04:37:28;-1.00;99.90
12967;DHT22;6548;49.996;8.238;2024-01-15T04:39:54;-1.00;99.90
12967;DHT22;6548;49.996;8.238;2024-01-15T04:42:21;-1.00;99.90
12967;DHT22;6548;49.996;8.238;2024-01-15T04:44:47;-1.00;99.90
12967;DHT22;6548;49.996;8.238;2024-01-15T04:47:12;-1.10;99.90
12967;DHT22;6548;49.996;8.238;2024-01-15T04:49:38;-1.10;99.90
12967;DHT22;6548;49.996;8.238;2024-01-15T04:52:04;-1.00;99.90
12967;DHT22;6548;49.996;8.238;2024-01-15T04:54:29;-1.00;99.90
12967;DHT22;6548;49.996;8.238;2024-01-15T04:56:55;-1.00;99.90
12967;DHT22;6548;49.996;8.238;2024-01-15T04:59:21;-1.00;99.90
12967;DHT22;6548;49.996;8.238;2024-01-15T05:01:46;-1.00;99.90
12967;DHT22;6548;49.996;8.238;2024-01-15T05:04:12;-1.00;99.90
12967;DHT22;6548;49.996;8.238;2024-01-15T05:06:38;-1.00;99.90
12967;DHT22;6548;49.996;8.238;2024-01-15T05:09:03;-1.00;99.90
12967;DHT22;6548;49.996;8.238;2024-01-15T05:11:29;-1.00;99.90
12967;DHT22;6548;49.996;8.238;2024-01-15T05:13:55;-1.00;99.90
12967;DHT22;6548;49.996;8.238;2024-01-15T05:16:20;-1.00;99.90
12967;DHT22;6548;49.996;8.238;2024-01-15T05:18:46;-1.00;99.90
12967;DHT22;6548;49.996;8.238;2024-01-15T05:21:12;-1.00;99.90
12967;DHT22;6548;49.996;8.238;2024-01-15T05:23:38;-1.10;99.90
12967;DHT22;6548;49.996;8.238;2024-01-15T05:26:03;-1.10;99.90
12967;DHT22;6548;49.996;8.238;2024-01-15T05:28:29;-1.20;99.90
12967;DHT22;6548;49.996;8.238;2024-01-15T05:30:55;-1.20;99.90
12967;DHT22;6548;49.996;8.238;2024-01-15T05:33:24;-1.20;99.90
12967;DHT22;6548;49.996;8.238;2024-01-15T05:35:50;-1.20;99.90
12967;DHT22;6548;49.996;8.238;2024-01-15T05:38:16;-1.10;99.90
12967;DHT22;6548;49.996;8.238;2024-01-15T05:40:44;-1.10;99.90
12967;DHT22;6548;49.996;8.238;2024-01-15T05:43:13;-1.00;99.90
12967;DHT22;6548;49.996;8.238;2024-01-15T05:45:42;-1.00;99.90
12967;DHT22;6548;49.996;8.238;2024-01-15T05:48:08;-1.00;99.90
12967;DHT22;6548;49.996;8.238;2024-01-15T05:50:33;-1.00;99.90
12967;DHT22;6548;49.996;8.238;2024-01-15T05:52:59;-0.90;99.90
12967;DHT22;6548;49.996;8.238;2024-01-15T05:55:25;-0.90;99.90
12967;DHT22;6548;49.996;8.238;2024-01-15T05:57:50;-0.90;99.90
12967;DHT22;6548;49.996;8.238;2024-01-15T06:00:16;-0.90;99.90
12967;DHT22;6548;49.996;8.238;2024-01-15T06:02:42;-0.90;99.90
12967;DHT22;6548;49.996;8.238;2024-01-15T06:05:08;-0.90;99.90
12967;DHT22;6548;49.996;8.238;2024-01-15T06:07:34;-0.80;99.90
12967;DHT22;6548;49.996;8.238;2024-01-15T06:10:00;-0.80;99.90
12967;DHT22;6548;49.996;8.238;2024-01-15T06:12:35;-0.80;99.90
12967;DHT22;6548;49.996;8.238;2024-01-15T06:15:01;-0.80;99.90
12967;DHT22;6548;49.996;8.238;2024-01-15T06:17:26;-0.70;99.90
12967;DHT22;6548;49.996;8.238;2024-01-15T06:19:52;-0.70;99.90
12967;DHT22;6548;49.996;8.238;2024-01-15T06:22:18;-0.80;99.90
12967;DHT22;6548;49.996;8.238;2024-01-15T06:24:43;-0.80;99.90
12967;DHT22;6548;49.996;8.238;2024-01-15T06:27:09;-0.90;99.90
12967;DHT22;6548;49.996;8.238;2024-01-15T06:29:37;-0.90;99.90
12967;DHT22;6548;49.996;8.238;2024-01-15T06:32:03;-0.80;99.90
12967;DHT22;6548;49.996;8.238;2024-01-15T06:34:29;-0.90;99.90
12967;DHT22;6548;49.996;8.238;2024-01-15T06:36:54;-0.90;99.90
12967;DHT22;6548;49.996;8.238;2024-01-15T06:39:20;-0.80;99.90
12967;DHT22;6548;49.996;8.238;2024-01-15T06:41:45;-0.80;99.90
12967;DHT22;6548;49.996;8.238;2024-01-15T06:44:11;-0.80;99.90
12967;DHT22;6548;49.996;8.238;2024-01-15T06:46:38;-0.90;99.90
12967;DHT22;6548;49.996;8.238;2024-01-15T06:49:06;-0.90;99.90
12967;DHT22;6548;49.996;8.238;2024-01-15T06:51:32;-0.80;99.90
12967;DHT22;6548;49.996;8.238;2024-01-15T06:53:57;-0.80;99.90
12967;DHT22;6548;49.996;8.238;2024-01-15T06:56:23;-0.80;99.90
12967;DHT22;6548;49.996;8.238;2024-01-15T06:58:48;-0.80;99.90
12967;DHT22;6548;49.996;8.238;2024-01-15T07:01:14;-0.80;99.90
12967;DHT22;6548;49.996;8.238;2024-01-15T07:03:39;-0.70;99.90
12967;DHT22;6548;49.996;8.238;2024-01-15T07:06:05;-0.70;99.90
12967;DHT22;6548;49.996;8.238;2024-01-15T07:08:31;-0.70;99.90
12967;DHT22;6548;49.996;8.238;2024-01-15T07:10:56;-0.70;99.90
12967;DHT22;6548;49.996;8.238;2024-01-15T07:13:22;-0.70;99.90
12967;DHT22;6548;49.996;8.238;2024-01-15T07:15:47;-0.60;99.90
12967;DHT22;6548;49.996;8.238;2024-01-15T07:18:13;-0.60;99.90
12967;DHT22;6548;49.996;8.238;2024-01-15T07:20:38;-0.60;99.90
12967;DHT22;6548;49.996;8.238;2024-01-15T07:23:04;-0.60;99.90
12967;DHT22;6548;49.996;8.238;2024-01-15T07:25:30;-0.60;99.90
12967;DHT22;6548;49.996;8.238;2024-01-15T07:27:55;-0.70;99.90
12967;DHT22;6548;49.996;8.238;2024-01-15T07:30:21;-0.70;99.90
12967;DHT22;6548;49.996;8.238;2024-01-15T07:32:47;-0.60;99.90
12967;DHT22;6548;49.996;8.238;2024-01-15T07:35:14;-0.60;99.90
12967;DHT22;6548;49.996;8.238;2024-01-15T07:37:40;-0.60;99.90
12967;DHT22;6548;49.996;8.238;2024-01-15T07:40:06;-0.60;99.90
12967;DHT22;6548;49.996;8.238;2024-01-15T07:42:37;-0.50;99.90
12967;DHT22;6548;49.996;8.238;2024-01-15T07:45:04;-0.50;99.90
12967;DHT22;6548;49.996;8.238;2024-01-15T07:47:29;-0.50;99.90
12967;DHT22;6548;49.996;8.238;2024-01-15T07:49:55;-0.50;99.90
12967;DHT22;6548;49.996;8.238;2024-01-15T07:52:21;-0.50;99.90
12967;DHT22;6548;49.996;8.238;2024-01-15T07:54:47;-0.50;99.90
12967;DHT22;6548;49.996;8.238;2024-01-15T07:57:13;-0.40;99.90
12967;DHT22;6548;49.996;8.238;2024-01-15T07:59:38;-0.40;99.90
12967;DHT22;6548;49.996;8.238;2024-01-15T08:02:05;-0.40;99.90
12967;DHT22;6548;49.996;8.238;2024-01-15T08:04:31;-0.40;99.90
12967;DHT22;6548;49.996;8.238;2024-01-15T08:06:57;-0.30;99.90
12967;DHT22;6548;49.996;8.238;2024-01-15T08:09:22;-0.30;99.90
12967;DHT22;6548;49.996;8.238;2024-01-15T08:11:48;-0.30;99.90
12967;DHT22;6548;49.996;8.238;2024-01-15T08:14:14;-0.30;99.90
12967;DHT22;6548;49.996;8.238;2024-01-15T08:16:40;-0.20;99.90
12967;DHT22;6548;49.996;8.238;2024-01-15T08:19:06;-0.20;99.90
12967;DHT22;6548;49.996;8.238;2024-01-15T08:21:32;-0.20;99.90
12967;DHT22;6548;49.996;8.238;2024-01-15T08:24:02;-0.10;99.90
12967;DHT22;6548;49.996;8.238;2024-01-15T08:26:28;-0.10;99.90
12967;DHT22;6548;49.996;8.238;2024-01-15T08:28:53;-0.10;99.90
12967;DHT22;6548;49.996;8.238;2024-01-15T08:31:19;0.00;99.90
12967;DHT22;6548;49.996;8.238;2024-01-15T08:33:45;-0.10;99.90
12967;DHT22;6548;49.996;8.238;2024-01-15T08:36:10;0.00;99.90
12967;DHT22;6548;49.996;8.238;2024-01-15T08:38:36;0.00;99.90
12967;DHT22;6548;49.996;8.238;2024-01-15T08:41:01;0.00;99.90
12967;DHT22;6548;49.996;8.238;2024-01-15T08:43:27;0.00;99.90
12967;DHT22;6548;49.996;8.238;2024-01-15T08:45:53;0.00;99.90
12967;DHT22;6548;49.996;8.238;2024-01-15T08:48:18;0.00;99.90
12967;DHT22;6548;49.996;8.238;2024-01-15T08:50:44;0.00;99.90
12967;DHT22;6548;49.996;8.238;2024-01-15T08:53:13;0.10;99.90
12967;DHT22;6548;49.996;8.238;2024-01-15T08:55:38;0.10;99.90
12967;DHT22;6548;49.996;8.238;2024-01-15T08:58:04;0.10;99.90
12967;DHT22;6548;49.996;8.238;2024-01-15T09:00:31;0.20;99.90
12967;DHT22;6548;49.996;8.238;2024-01-15T09:02:57;0.20;99.90
12967;DHT22;6548;49.996;8.238;2024-01-15T09:05:22;0.20;99.90
12967;DHT22;6548;49.996;8.238;2024-01-15T09:07:48;0.30;99.90
12967;DHT22;6548;49.996;8.238;2024-01-15T09:10:14;0.40;99.90
12967;DHT22;6548;49.996;8.238;2024-01-15T09:12:39;0.40;99.90
12967;DHT22;6548;49.996;8.238;2024-01-15T09:15:05;0.40;99.90
12967;DHT22;6548;49.996;8.238;2024-01-15T09:17:32;0.30;99.90
12967;DHT22;6548;49.996;8.238;2024-01-15T09:19:57;0.30;99.90
12967;DHT22;6548;49.996;8.238;2024-01-15T09:22:23;0.20;99.90
12967;DHT22;6548;49.996;8.238;2024-01-15T09:24:48;0.30;99.90
12967;DHT22;6548;49.996;8.238;2024-01-15T09:27:14;0.30;99.90
12967;DHT22;6548;49.996;8.238;2024-01-15T09:29:40;0.40;99.90
12967;DHT22;6548;49.996;8.238;2024-01-15T09:32:07;0.40;99.90
12967;DHT22;6548;49.996;8.238;2024-01-15T09:34:33;0.30;99.90
12967;DHT22;6548;49.996;8.238;2024-01-15T09:36:59;0.30;99.90
12967;DHT22;6548;49.996;8.238;2024-01-15T09:39:28;0.30;99.90
12967;DHT22;6548;49.996;8.238;2024-01-15T09:41:54;0.30;99.90
12967;DHT22;6548;49.996;8.238;2024-01-15T09:44:20;0.30;99.90
12967;DHT22;6548;49.996;8.238;2024-01-15T09:46:46;0.40;99.90
12967;DHT22;6548;49.996;8.238;2024-01-15T09:49:15;0.40;99.90
12967;DHT22;6548;49.996;8.238;2024-01-15T09:51:41;0.40;99.90
12967;DHT22;6548;49.996;8.238;2024-01-15T09:54:08;0.40;99.90
12967;DHT22;6548;49.996;8.238;2024-01-15T09:56:34;0.40;99.90
12967;DHT22;6548;49.996;8.238;2024-01-15T09:59:01;0.40;99.90
12967;DHT22;6548;49.996;8.238;2024-01-15T10:01:26;0.40;99.90
12967;DHT22;6548;49.996;8.238;2024-01-15T10:03:52;0.50;99.90
12967;DHT22;6548;49.996;8.238;2024-01-15T10:06:21;0.50;99.90
12967;DHT22;6548;49.996;8.238;2024-01-15T10:08:48;0.60;99.90
12967;DHT22;6548;49.996;8.238;2024-01-15T10:11:14;0.70;99.90
12967;DHT22;6548;49.996;8.238;2024-01-15T10:13:40;0.80;99.90
12967;DHT22;6548;49.996;8.238;2024-01-15T10:16:06;0.80;99.90
12967;DHT22;6548;49.996;8.238;2024-01-15T10:18:32;0.80;99.90
12967;DHT22;6548;49.996;8.238;2024-01-15T10:20:58;0.80;99.90
12967;DHT22;6548;49.996;8.238;2024-01-15T10:23:24;0.90;99.90
12967;DHT22;6548;49.996;8.238;2024-01-15T10:25:50;0.90;99.90
12967;DHT22;6548;49.996;8.238;2024-01-15T10:28:17;0.90;99.90
12967;DHT22;6548;49.996;8.238;2024-01-15T10:30:44;0.90;99.90
12967;DHT22;6548;49.996;8.238;2024-01-15T10:33:10;0.90;99.90
12967;DHT22;6548;49.996;8.238;2024-01-15T10:35:37;0.90;99.90
12967;DHT22;6548;49.996;8.238;2024-01-15T10:38:03;0.90;99.90
12967;DHT22;6548;49.996;8.238;2024-01-15T10:40:29;0.80;99.90
12967;DHT22;6548;49.996;8.238;2024-01-15T10:42:55;0.90;99.90
12967;DHT22;6548;49.996;8.238;2024-01-15T10:45:21;1.00;99.90
12967;DHT22;6548;49.996;8.238;2024-01-15T10:47:47;1.00;99.90
12967;DHT22;6548;49.996;8.238;2024-01-15T10:50:14;1.00;99.90
12967;DHT22;6548;49.996;8.238;2024-01-15T10:52:40;1.10;99.90
12967;DHT22;6548;49.996;8.238;2024-01-15T10:55:10;1.40;99.90
12967;DHT22;6548;49.996;8.238;2024-01-15T10:57:37;1.50;99.90
12967;DHT22;6548;49.996;8.238;2024-01-15T11:00:06;2.20;99.90
12967;DHT22;6548;49.996;8.238;2024-01-15T11:02:36;2.20;99.90
12967;DHT22;6548;49.996;8.238;2024-01-15T11:05:03;2.00;99.90
12967;DHT22;6548;49.996;8.238;2024-01-15T11:07:30;1.80;99.90
12967;DHT22;6548;49.996;8.238;2024-01-15T11:09:56;1.80;99.90
12967;DHT22;6548;49.996;8.238;2024-01-15T11:12:24;1.90;99.90
12967;DHT22;6548;49.996;8.238;2024-01-15T11:14:50;2.10;99.90
12967;DHT22;6548;49.996;8.238;2024-01-15T11:17:16;3.50;99.90
12967;DHT22;6548;49.996;8.238;2024-01-15T11:19:47;3.20;99.90
12967;DHT22;6548;49.996;8.238;2024-01-15T11:25:15;4.50;99.90
12967;DHT22;6548;49.996;8.238;2024-01-15T11:27:42;4.30;99.90
12967;DHT22;6548;49.996;8.238;2024-01-15T11:30:08;4.30;99.90
12967;DHT22;6548;49.996;8.238;2024-01-15T11:32:36;4.10;99.90
12967;DHT22;6548;49.996;8.238;2024-01-15T11:35:02;3.30;99.90
12967;DHT22;6548;49.996;8.238;2024-01-15T11:37:29;3.30;99.90
12967;DHT22;6548;49.996;8.238;2024-01-15T11:40:21;3.20;99.90
12967;DHT22;6548;49.996;8.238;2024-01-15T11:42:47;2.70;99.90
12967;DHT22;6548;49.996;8.238;2024-01-15T11:45:17;2.40;99.90
12967;DHT22;6548;49.996;8.238;2024-01-15T11:50:35;2.30;99.90
12967;DHT22;6548;49.996;8.238;2024-01-15T11:53:31;2.30;99.90
12967;DHT22;6548;49.996;8.238;2024-01-15T11:55:58;2.40;99.90
12967;DHT22;6548;49.996;8.238;2024-01-15T11:58:24;2.60;99.90
12967;DHT22;6548;49.996;8.238;2024-01-15T12:00:51;2.80;99.90
12967;DHT22;6548;49.996;8.238;2024-01-15T12:03:23;3.10;99.90
12967;DHT22;6548;49.996;8.238;2024-01-15T12:05:49;3.00;99.90
12967;DHT22;6548;49.996;8.238;2024-01-15T12:08:15;2.70;99.90
12967;DHT22;6548;49.996;8.238;2024-01-15T12:10:45;2.50;99.90
12967;DHT22;6548;49.996;8.238;2024-01-15T12:13:12;2.40;99.90
12967;DHT22;6548;49.996;8.238;2024-01-15T12:15:39;2.40;99.90
12967;DHT22;6548;49.996;8.238;2024-01-15T12:18:07;2.30;99.90
12967;DHT22;6548;49.996;8.238;2024-01-15T12:20:33;2.30;99.90
12967;DHT22;6548;49.996;8.238;2024-01-15T12:23:00;2.20;99.90
12967;DHT22;6548;49.996;8.238;2024-01-15T12:25:26;2.20;99.90
12967;DHT22;6548;49.996;8.238;2024-01-15T12:27:53;2.20;99.90
12967;DHT22;6548;49.996;8.238;2024-01-15T12:30:19;2.20;99.90
12967;DHT22;6548;49.996;8.238;2024-01-15T12:32:45;2.20;99.90
12967;DHT22;6548;49.996;8.238;2024-01-15T12:35:12;2.20;99.90
12967;DHT22;6548;49.996;8.238;2024-01-15T12:37:43;2.20;99.90
12967;DHT22;6548;49.996;8.238;2024-01-15T12:40:10;2.30;99.90
12967;DHT22;6548;49.996;8.238;2024-01-15T12:42:41;2.30;99.90
12967;DHT22;6548;49.996;8.238;2024-01-15T12:45:09;2.40;99.90
12967;DHT22;6548;49.996;8.238;2024-01-15T12:47:36;2.50;99.90
12967;DHT22;6548;49.996;8.238;2024-01-15T12:50:02;2.50;99.90
12967;DHT22;6548;49.996;8.238;2024-01-15T12:52:29;2.60;99.90
12967;DHT22;6548;49.996;8.238;2024-01-15T12:54:54;2.60;99.90
12967;DHT22;6548;49.996;8.238;2024-01-15T12:57:20;2.60;99.90
12967;DHT22;6548;49.996;8.238;2024-01-15T12:59:46;2.70;99.90
12967;DHT22;6548;49.996;8.238;2024-01-15T13:02:13;2.70;99.90
12967;DHT22;6548;49.996;8.238;2024-01-15T13:04:39;2.70;99.90
12967;DHT22;6548;49.996;8.238;2024-01-15T13:07:08;2.60;99.90
12967;DHT22;6548;49.996;8.238;2024-01-15T13:09:34;2.60;99.90
12967;DHT22;6548;49.996;8.238;2024-01-15T13:12:00;2.60;99.90
12967;DHT22;6548;49.996;8.238;2024-01-15T13:14:27;2.60;99.90
12967;DHT22;6548;49.996;8.238;2024-01-15T13:16:52;2.60;99.90
12967;DHT22;6548;49.996;8.238;2024-01-15T13:19:19;2.60;99.90
12967;DHT22;6548;49.996;8.238;2024-01-15T13:21:45;2.70;99.90
12967;DHT22;6548;49.996;8.238;2024-01-15T13:24:10;2.70;99.90
12967;DHT22;6548;49.996;8.238;2024-01-15T13:26:36;2.80;99.90
12967;DHT22;6548;49.996;8.238;2024-01-15T13:29:03;2.80;99.90
12967;DHT22;6548;49.996;8.238;2024-01-15T13:31:32;2.90;99.90
12967;DHT22;6548;49.996;8.238;2024-01-15T13:33:58;3.00;99.90
12967;DHT22;6548;49.996;8.238;2024-01-15T13:36:25;3.10;99.90
12967;DHT22;6548;49.996;8.238;2024-01-15T13:38:51;3.20;99.90
12967;DHT22;6548;49.996;8.238;2024-01-15T13:41:18;3.10;99.90
12967;DHT22;6548;49.996;8.238;2024-01-15T13:43:54;3.00;99.90
12967;DHT22;6548;49.996;8.238;2024-01-15T13:46:24;2.80;99.90
12967;DHT22;6548;49.996;8.238;2024-01-15T13:48:52;2.70;99.90
12967;DHT22;6548;49.996;8.238;2024-01-15T13:51:17;2.80;99.90
12967;DHT22;6548;49.996;8.238;2024-01-15T13:53:43;2.90;99.90
12967;DHT22;6548;49.996;8.238;2024-01-15T13:56:08;2.90;99.90
12967;DHT22;6548;49.996;8.238;2024-01-15T13:58:36;2.90;99.90
12967;DHT22;6548;49.996;8.238;2024-01-15T14:01:02;2.90;99.90
12967;DHT22;6548;49.996;8.238;2024-01-15T14:03:31;3.00;99.90
12967;DHT22;6548;49.996;8.238;2024-01-15T14:05:57;3.00;99.90
12967;DHT22;6548;49.996;8.238;2024-01-15T14:08:22;3.00;99.90
12967;DHT22;6548;49.996;8.238;2024-01-15T14:10:48;2.90;99.90
12967;DHT22;6548;49.996;8.238;2024-01-15T14:13:14;2.80;99.90
12967;DHT22;6548;49.996;8.238;2024-01-15T14:15:40;2.80;99.90
12967;DHT22;6548;49.996;8.238;2024-01-15T14:18:05;2.70;99.90
12967;DHT22;6548;49.996;8.238;2024-01-15T14:20:31;2.70;99.90
12967;DHT22;6548;49.996;8.238;2024-01-15T14:22:57;2.70;99.90
12967;DHT22;6548;49.996;8.238;2024-01-15T14:25:22;2.70;99.90
12967;DHT22;6548;49.996;8.238;2024-01-15T14:27:49;2.70;99.90
12967;DHT22;6548;49.996;8.238;2024-01-15T14:30:15;2.70;99.90
12967;DHT22;6548;49.996;8.238;2024-01-15T14:32:42;2.70;99.90
12967;DHT22;6548;49.996;8.238;2024-01-15T14:35:08;2.70;99.90
12967;DHT22;6548;49.996;8.238;2024-01-15T14:37:39;2.70;99.90
12967;DHT22;6548;49.996;8.238;2024-01-15T14:40:07;2.70;99.90
12967;DHT22;6548;49.996;8.238;2024-01-15T14:42:34;2.70;99.90
12967;DHT22;6548;49.996;8.238;2024-01-15T14:45:00;2.70;99.90
12967;DHT22;6548;49.996;8.238;2024-01-15T14:47:26;2.70;99.90
12967;DHT22;6548;49.996;8.238;2024-01-15T14:49:53;2.80;99.90
12967;DHT22;6548;49.996;8.238;2024-01-15T14:52:18;2.80;99.90
12967;DHT22;6548;49.996;8.238;2024-01-15T14:54:44;2.80;99.90
12967;DHT22;6548;49.996;8.238;2024-01-15T14:57:09;2.70;99.90
12967;DHT22;6548;49.996;8.238;2024-01-15T14:59:35;2.70;99.90
12967;DHT22;6548;49.996;8.238;2024-01-15T15:02:00;2.60;99.90
12967;DHT22;6548;49.996;8.238;2024-01-15T15:04:26;2.60;99.90
12967;DHT22;6548;49.996;8.238;2024-01-15T15:06:52;2.60;99.90
12967;DHT22;6548;49.996;8.238;2024-01-15T15:09:17;2.60;99.90
12967;DHT22;6548;49.996;8.238;2024-01-15T15:11:43;2.60;99.90
12967;DHT22;6548;49.996;8.238;2024-01-15T15:14:08;2.50;99.90
12967;DHT22;6548;49.996;8.238;2024-01-15T15:16:34;2.50;99.90
12967;DHT22;6548;49.996;8.238;2024-01-15T15:19:00;2.50;99.90
12967;DHT22;6548;49.996;8.238;2024-01-15T15:21:25;2.50;99.90
12967;DHT22;6548;49.996;8.238;2024-01-15T15:23:52;2.40;99.90
12967;DHT22;6548;49.996;8.238;2024-01-15T15:26:17;2.40;99.90
12967;DHT22;6548;49.996;8.238;2024-01-15T15:28:43;2.40;99.90
12967;DHT22;6548;49.996;8.238;2024-01-15T15:31:08;2.40;99.90
12967;DHT22;6548;49.996;8.238;2024-01-15T15:33:36;2.40;99.90
12967;DHT22;6548;49.996;8.238;2024-01-15T15:36:02;2.30;99.90
12967;DHT22;6548;49.996;8.238;2024-01-15T15:38:33;2.30;99.90
12967;DHT22;6548;49.996;8.238;2024-01-15T15:40:59;2.30;99.90
12967;DHT22;6548;49.996;8.238;2024-01-15T15:43:27;2.20;99.90
12967;DHT22;6548;49.996;8.238;2024-01-15T15:45:53;2.20;99.90
12967;DHT22;6548;49.996;8.238;2024-01-15T15:48:18;2.20;99.90
12967;DHT22;6548;49.996;8.238;2024-01-15T15:50:44;2.20;99.90